createdAt,value
2022-11-27T00:01:42.176Z,78.60
2022-11-27T00:04:12.051Z,74.40
2022-11-27T00:06:41.877Z,71.10
2022-11-27T00:09:15.108Z,58.90
2022-11-27T00:11:45.317Z,72.90
2022-11-27T00:14:18.156Z,68.50
2022-11-27T00:16:46.940Z,64.30
2022-11-27T00:19:15.673Z,64.00
2022-11-27T00:21:44.155Z,59.80
2022-11-27T00:24:12.798Z,60.80
2022-11-27T00:26:41.309Z,71.20
2022-11-27T00:29:10.170Z,71.30
2022-11-27T00:31:38.931Z,62.00
2022-11-27T00:34:10.422Z,70.30
2022-11-27T00:36:39.808Z,58.60
2022-11-27T00:39:11.065Z,64.20
2022-11-27T00:41:40.486Z,69.20
2022-11-27T00:44:09.065Z,73.40
2022-11-27T00:46:37.813Z,65.30
2022-11-27T00:49:07.766Z,78.60
2022-11-27T00:51:36.350Z,68.60
2022-11-27T00:54:06.300Z,80.80
2022-11-27T00:56:37.559Z,81.80
2022-11-27T00:59:07.221Z,73.60
2022-11-27T01:01:37.579Z,69.50
2022-11-27T01:04:09.141Z,73.30
2022-11-27T01:06:37.788Z,78.50
2022-11-27T01:09:07.374Z,75.00
2022-11-27T01:11:36.522Z,70.70
2022-11-27T01:14:07.835Z,68.40
2022-11-27T01:16:43.071Z,76.70
2022-11-27T01:19:14.542Z,72.40
2022-11-27T01:21:43.663Z,73.40
2022-11-27T01:24:14.395Z,77.80
2022-11-27T01:26:46.581Z,73.70
2022-11-27T01:29:18.535Z,68.80
2022-11-27T01:31:47.376Z,71.00
2022-11-27T01:34:18.109Z,66.80
2022-11-27T01:36:50.350Z,65.20
2022-11-27T01:39:23.579Z,65.60
2022-11-27T01:41:54.985Z,79.10
2022-11-27T01:44:49.210Z,70.60
2022-11-27T01:47:27.647Z,64.20
2022-11-27T01:50:03.988Z,61.80
2022-11-27T01:52:36.975Z,70.10
2022-11-27T01:55:23.529Z,71.10
2022-11-27T01:57:58.122Z,77.00
2022-11-27T02:00:27.406Z,78.40
2022-11-27T02:02:57.044Z,72.10
2022-11-27T02:05:28.024Z,81.70
2022-11-27T02:07:58.487Z,74.50
2022-11-27T02:10:44.515Z,78.90
2022-11-27T02:13:19.599Z,74.00
2022-11-27T02:15:55.623Z,71.20
2022-11-27T02:18:31.949Z,76.00
2022-11-27T02:21:06.399Z,72.00
2022-11-27T02:23:55.955Z,73.60
2022-11-27T02:26:48.813Z,76.50
2022-11-27T02:29:22.719Z,65.50
2022-11-27T02:32:02.087Z,77.20
2022-11-27T02:34:37.459Z,75.40
2022-11-27T02:37:12.785Z,63.00
2022-11-27T02:39:48.590Z,70.80
2022-11-27T02:42:23.949Z,83.80
2022-11-27T02:44:56.885Z,78.40
2022-11-27T02:47:28.066Z,79.10
2022-11-27T02:49:57.494Z,73.30
2022-11-27T02:52:28.988Z,85.90
2022-11-27T02:55:03.270Z,81.80
2022-11-27T02:57:33.594Z,73.30
2022-11-27T03:00:04.071Z,84.30
2022-11-27T03:02:36.952Z,74.80
2022-11-27T03:05:13.076Z,75.60
2022-11-27T03:07:45.658Z,84.80
2022-11-27T03:10:20.593Z,70.60
2022-11-27T03:12:51.005Z,76.60
2022-11-27T03:15:21.127Z,79.70
2022-11-27T03:17:59.638Z,76.10
2022-11-27T03:20:35.514Z,68.50
2022-11-27T03:23:03.850Z,75.00
2022-11-27T03:25:33.051Z,78.40
2022-11-27T03:28:04.679Z,76.50
2022-11-27T03:30:34.746Z,73.30
2022-11-27T03:33:03.967Z,70.90
2022-11-27T03:35:35.245Z,75.60
2022-11-27T03:38:03.999Z,84.50
2022-11-27T03:40:44.934Z,81.00
2022-11-27T03:43:18.908Z,75.90
2022-11-27T03:45:58.186Z,81.80
2022-11-27T03:48:38.052Z,79.80
2022-11-27T03:51:12.385Z,82.20
2022-11-27T03:53:56.928Z,82.70
2022-11-27T03:56:35.468Z,75.80
2022-11-27T04:01:40.352Z,70.60
2022-11-27T04:04:09.203Z,75.80
2022-11-27T04:06:38.254Z,84.50
2022-11-27T04:09:07.052Z,81.30
2022-11-27T04:11:41.140Z,84.40
2022-11-27T04:14:10.419Z,84.90
2022-11-27T04:16:41.482Z,75.60
2022-11-27T04:19:10.193Z,87.90
2022-11-27T04:21:38.632Z,69.90
2022-11-27T04:24:07.786Z,82.60
2022-11-27T04:26:36.982Z,68.70
2022-11-27T04:29:05.570Z,78.50
2022-11-27T04:31:34.540Z,69.00
2022-11-27T04:34:04.368Z,71.70
2022-11-27T04:36:39.177Z,70.60
2022-11-27T04:39:08.621Z,69.80
2022-11-27T04:41:37.239Z,78.30
2022-11-27T04:44:08.933Z,81.40
2022-11-27T04:46:37.708Z,65.70
2022-11-27T04:49:11.340Z,68.00
2022-11-27T04:51:39.874Z,68.60
2022-11-27T04:54:08.358Z,75.70
2022-11-27T04:56:37.047Z,69.40
2022-11-27T04:59:06.062Z,68.50
2022-11-27T05:01:37.506Z,71.10
2022-11-27T05:04:06.171Z,64.00
2022-11-27T05:06:35.034Z,60.40
2022-11-27T05:09:03.859Z,76.60
2022-11-27T05:11:34.325Z,63.10
2022-11-27T05:14:14.948Z,64.50
2022-11-27T05:16:44.095Z,70.50
2022-11-27T05:19:14.108Z,70.10
2022-11-27T05:21:43.876Z,65.50
2022-11-27T05:24:13.298Z,64.00
2022-11-27T05:26:43.020Z,65.60
2022-11-27T05:29:13.005Z,67.10
2022-11-27T05:31:41.835Z,66.20
2022-11-27T05:34:11.407Z,73.90
2022-11-27T05:36:40.790Z,69.80
2022-11-27T05:39:10.520Z,75.70
2022-11-27T05:41:41.110Z,74.20
2022-11-27T05:44:12.564Z,81.20
2022-11-27T05:46:44.078Z,71.30
2022-11-27T05:49:14.927Z,71.70
2022-11-27T05:51:50.618Z,66.10
2022-11-27T05:54:19.937Z,64.50
2022-11-27T05:56:48.629Z,68.00
2022-11-27T05:59:17.059Z,65.60
2022-11-27T06:01:48.825Z,72.60
2022-11-27T06:04:18.809Z,71.80
2022-11-27T06:06:47.570Z,68.80
2022-11-27T06:09:16.483Z,74.60
2022-11-27T06:11:45.304Z,73.50
2022-11-27T06:14:14.513Z,77.70
2022-11-27T06:16:43.425Z,77.30
2022-11-27T06:19:12.148Z,67.40
2022-11-27T06:21:40.822Z,66.10
2022-11-27T06:24:10.765Z,69.80
2022-11-27T06:26:39.714Z,66.10
2022-11-27T06:29:09.051Z,78.90
2022-11-27T06:31:37.487Z,62.90
2022-11-27T06:34:07.338Z,83.50
2022-11-27T06:36:37.761Z,77.30
2022-11-27T06:39:08.204Z,72.80
2022-11-27T06:41:36.816Z,68.20
2022-11-27T06:44:05.579Z,74.10
2022-11-27T06:46:37.108Z,75.80
2022-11-27T06:49:05.623Z,75.80
2022-11-27T06:51:35.700Z,67.70
2022-11-27T06:54:04.355Z,67.10
2022-11-27T06:56:34.016Z,79.00
2022-11-27T06:59:02.802Z,62.80
2022-11-27T07:01:34.062Z,86.40
2022-11-27T07:04:02.718Z,80.20
2022-11-27T07:06:31.212Z,74.10
2022-11-27T07:08:59.671Z,73.10
2022-11-27T07:11:29.494Z,74.60
2022-11-27T07:13:59.648Z,75.40
2022-11-27T07:16:30.125Z,68.70
2022-11-27T07:19:02.560Z,65.10
2022-11-27T07:21:32.960Z,71.30
2022-11-27T07:24:01.743Z,69.40
2022-11-27T07:26:30.669Z,80.20
2022-11-27T07:28:59.307Z,71.50
2022-11-27T07:31:30.490Z,78.90
2022-11-27T07:33:59.455Z,76.90
2022-11-27T07:36:34.761Z,75.90
2022-11-27T07:39:04.131Z,82.10
2022-11-27T07:41:34.560Z,81.00
2022-11-27T07:44:04.356Z,75.60
2022-11-27T07:46:36.353Z,76.50
2022-11-27T07:49:05.191Z,76.10
2022-11-27T07:51:36.471Z,81.60
2022-11-27T07:54:05.746Z,74.50
2022-11-27T07:56:36.383Z,88.60
2022-11-27T07:59:04.872Z,73.00
2022-11-27T08:01:36.045Z,76.00
2022-11-27T08:04:04.895Z,68.90
2022-11-27T08:06:34.156Z,78.60
2022-11-27T08:09:02.522Z,73.20
2022-11-27T08:11:34.968Z,71.10
2022-11-27T08:14:05.710Z,72.00
2022-11-27T08:16:39.427Z,74.70
2022-11-27T08:19:09.499Z,77.70
2022-11-27T08:21:38.008Z,81.30
2022-11-27T08:24:07.697Z,80.70
2022-11-27T08:26:36.412Z,75.60
2022-11-27T08:29:06.095Z,64.60
2022-11-27T08:31:37.440Z,72.00
2022-11-27T08:34:05.968Z,70.40
2022-11-27T08:36:38.671Z,64.60
2022-11-27T08:39:07.293Z,65.90
2022-11-27T08:41:35.813Z,86.30
2022-11-27T08:44:09.343Z,78.20
2022-11-27T08:46:38.422Z,76.30
2022-11-27T08:49:06.770Z,87.30
2022-11-27T08:51:39.014Z,105.10
2022-11-27T08:54:07.519Z,82.90
2022-11-27T08:56:36.081Z,72.20
2022-11-27T08:59:04.683Z,76.60
2022-11-27T09:01:35.126Z,72.40
2022-11-27T09:04:03.981Z,77.90
2022-11-27T09:06:34.545Z,87.50
2022-11-27T09:09:05.795Z,78.70
2022-11-27T09:11:38.531Z,78.80
2022-11-27T09:14:08.269Z,81.90
2022-11-27T09:16:37.225Z,70.50
2022-11-27T09:19:05.711Z,85.30
2022-11-27T09:21:35.643Z,73.60
2022-11-27T09:24:04.777Z,153.40
2022-11-27T09:26:35.284Z,234.10
2022-11-27T09:29:04.027Z,186.90
2022-11-27T09:31:36.083Z,126.70
2022-11-27T09:34:05.083Z,123.60
2022-11-27T09:36:37.236Z,89.50
2022-11-27T09:39:05.690Z,75.20
2022-11-27T09:41:46.377Z,68.10
2022-11-27T09:44:26.291Z,82.50
2022-11-27T09:46:56.630Z,62.70
2022-11-27T09:49:30.987Z,67.00
2022-11-27T09:52:04.263Z,70.30
2022-11-27T09:54:38.731Z,71.00
2022-11-27T09:57:14.223Z,66.40
2022-11-27T09:59:50.052Z,86.20
2022-11-27T10:02:25.231Z,72.60
2022-11-27T10:08:06.035Z,69.10
2022-11-27T10:10:46.814Z,67.40
2022-11-27T10:13:26.432Z,66.60
2022-11-27T10:16:00.593Z,70.50
2022-11-27T10:18:37.472Z,69.00
2022-11-27T10:21:13.677Z,73.20
2022-11-27T10:23:51.040Z,76.80
2022-11-27T10:26:24.397Z,76.70
2022-11-27T10:29:01.267Z,76.70
2022-11-27T10:31:36.933Z,85.90
2022-11-27T10:34:23.764Z,90.70
2022-11-27T10:36:53.888Z,77.30
2022-11-27T10:39:30.035Z,74.00
2022-11-27T10:42:06.923Z,71.30
2022-11-27T10:44:41.492Z,72.20
2022-11-27T10:47:13.305Z,73.00
2022-11-27T10:49:44.198Z,71.20
2022-11-27T10:52:14.738Z,72.50
2022-11-27T10:54:45.997Z,77.60
2022-11-27T10:57:29.713Z,66.70
2022-11-27T11:00:10.355Z,68.20
2022-11-27T11:02:40.333Z,68.70
2022-11-27T11:05:37.295Z,57.90
2022-11-27T11:08:05.139Z,67.50
2022-11-27T11:10:36.679Z,70.20
2022-11-27T11:13:16.980Z,75.30
2022-11-27T11:15:54.509Z,60.80
2022-11-27T11:18:24.967Z,66.60
2022-11-27T11:20:57.062Z,90.50
2022-11-27T11:23:33.171Z,130.20
2022-11-27T11:26:05.556Z,114.40
2022-11-27T11:28:40.424Z,74.00
2022-11-27T11:31:14.794Z,57.20
2022-11-27T11:33:52.624Z,65.40
2022-11-27T11:36:22.213Z,65.70
2022-11-27T11:38:51.533Z,65.90
2022-11-27T11:41:20.420Z,74.20
2022-11-27T11:44:01.264Z,66.60
2022-11-27T11:46:34.591Z,66.10
2022-11-27T11:49:07.843Z,59.40
2022-11-27T11:52:21.549Z,60.60
2022-11-27T11:54:58.531Z,65.30
2022-11-27T11:57:51.896Z,70.60
2022-11-27T12:00:26.636Z,62.70
2022-11-27T12:05:47.508Z,60.90
2022-11-27T12:08:29.246Z,74.00
2022-11-27T12:11:08.720Z,68.60
2022-11-27T12:14:07.461Z,65.50
2022-11-27T12:16:48.659Z,60.80
2022-11-27T12:19:35.106Z,67.50
2022-11-27T12:22:17.063Z,51.30
2022-11-27T12:24:55.435Z,54.90
2022-11-27T12:30:10.008Z,66.60
2022-11-27T12:33:13.830Z,56.40
2022-11-27T12:35:52.312Z,55.80
2022-11-27T12:41:13.498Z,60.50
2022-11-27T12:43:46.511Z,71.60
2022-11-27T12:46:19.659Z,64.40
2022-11-27T12:48:53.240Z,63.20
2022-11-27T12:51:27.049Z,67.60
2022-11-27T12:53:59.809Z,71.90
2022-11-27T12:56:34.569Z,72.00
2022-11-27T12:59:10.510Z,50.70
2022-11-27T13:01:43.253Z,57.80
2022-11-27T13:04:21.398Z,61.00
2022-11-27T13:09:32.134Z,52.10
2022-11-27T13:12:02.776Z,88.20
2022-11-27T13:14:37.284Z,68.10
2022-11-27T13:17:11.138Z,60.10
2022-11-27T13:19:44.179Z,63.20
2022-11-27T13:22:19.061Z,54.10
2022-11-27T13:24:48.019Z,52.60
2022-11-27T13:27:19.692Z,53.70
2022-11-27T13:29:52.869Z,58.20
2022-11-27T13:32:24.649Z,51.80
2022-11-27T13:34:55.702Z,59.80
2022-11-27T13:37:31.101Z,54.80
2022-11-27T13:40:06.761Z,64.40
2022-11-27T13:42:42.839Z,56.80
2022-11-27T13:45:22.295Z,55.60
2022-11-27T13:47:52.087Z,54.10
2022-11-27T13:50:25.750Z,56.50
2022-11-27T13:53:00.068Z,54.00
2022-11-27T13:55:31.274Z,48.80
2022-11-27T13:58:02.079Z,55.80
2022-11-27T14:00:36.974Z,56.00
2022-11-27T14:03:09.880Z,52.10
2022-11-27T14:05:41.954Z,55.60
2022-11-27T14:08:23.228Z,57.10
2022-11-27T14:10:55.748Z,60.30
2022-11-27T14:13:42.457Z,60.30
2022-11-27T14:16:25.671Z,57.70
2022-11-27T14:18:57.324Z,56.30
2022-11-27T14:21:39.824Z,53.10
2022-11-27T14:24:25.183Z,57.50
2022-11-27T14:26:54.400Z,56.50
2022-11-27T14:29:24.995Z,58.30
2022-11-27T14:31:58.491Z,58.00
2022-11-27T14:34:28.841Z,58.80
2022-11-27T14:36:58.669Z,55.60
2022-11-27T14:39:30.464Z,60.90
2022-11-27T14:42:00.684Z,80.10
2022-11-27T14:44:29.877Z,68.50
2022-11-27T14:47:01.746Z,67.40
2022-11-27T14:49:31.743Z,69.60
2022-11-27T14:52:07.123Z,69.40
2022-11-27T14:54:39.035Z,83.80
2022-11-27T14:57:13.888Z,67.30
2022-11-27T14:59:46.615Z,58.70
2022-11-27T15:02:19.537Z,64.90
2022-11-27T15:04:49.923Z,71.00
2022-11-27T15:07:22.927Z,67.50
2022-11-27T15:09:54.980Z,63.30
2022-11-27T15:12:28.643Z,60.50
2022-11-27T15:15:00.229Z,57.20
2022-11-27T15:17:32.174Z,56.70
2022-11-27T15:20:13.027Z,57.50
2022-11-27T15:22:49.572Z,54.90
2022-11-27T15:25:40.085Z,53.60
2022-11-27T15:28:29.354Z,54.70
2022-11-27T15:30:58.291Z,55.50
2022-11-27T15:33:29.794Z,58.80
2022-11-27T15:36:15.337Z,63.60
2022-11-27T15:38:45.322Z,66.50
2022-11-27T15:41:23.061Z,66.30
2022-11-27T15:43:52.367Z,62.60
2022-11-27T15:46:25.440Z,63.10
2022-11-27T15:48:53.979Z,55.30
2022-11-27T15:51:22.406Z,55.30
2022-11-27T15:53:50.783Z,55.80
2022-11-27T15:56:20.205Z,56.40
2022-11-27T15:58:48.496Z,51.50
2022-11-27T16:01:17.247Z,61.70
2022-11-27T16:03:46.142Z,64.70
2022-11-27T16:06:14.843Z,67.50
2022-11-27T16:08:43.234Z,55.00
2022-11-27T16:11:13.680Z,61.10
2022-11-27T16:13:42.244Z,61.40
2022-11-27T16:16:11.294Z,59.00
2022-11-27T16:18:40.050Z,59.90
2022-11-27T16:21:11.327Z,56.20
2022-11-27T16:23:41.121Z,59.20
2022-11-27T16:26:11.900Z,61.20
2022-11-27T16:28:40.403Z,67.90
2022-11-27T16:31:11.322Z,66.60
2022-11-27T16:33:39.817Z,71.20
2022-11-27T16:36:10.973Z,63.30
2022-11-27T16:38:41.609Z,70.40
2022-11-27T16:41:12.376Z,61.40
2022-11-27T16:43:42.792Z,73.20
2022-11-27T16:46:14.306Z,66.20
2022-11-27T16:48:44.688Z,81.80
2022-11-27T16:51:16.412Z,90.60
2022-11-27T16:53:47.139Z,109.00
2022-11-27T16:56:18.641Z,82.20
2022-11-27T16:58:47.825Z,72.00
2022-11-27T17:01:19.949Z,68.90
2022-11-27T17:03:49.794Z,67.60
2022-11-27T17:06:22.163Z,72.90
2022-11-27T17:08:50.783Z,69.20
2022-11-27T17:11:21.507Z,61.50
2022-11-27T17:13:50.592Z,79.50
2022-11-27T17:16:21.014Z,73.80
2022-11-27T17:18:51.024Z,67.30
2022-11-27T17:21:23.711Z,74.90
2022-11-27T17:23:54.112Z,74.80
2022-11-27T17:26:24.130Z,75.20
2022-11-27T17:28:55.604Z,68.40
2022-11-27T17:31:26.283Z,75.90
2022-11-27T17:33:56.126Z,72.80
2022-11-27T17:36:26.246Z,71.10
2022-11-27T17:38:54.790Z,74.90
2022-11-27T17:41:23.758Z,78.30
2022-11-27T17:43:53.568Z,73.90
2022-11-27T17:46:25.532Z,72.50
2022-11-27T17:48:55.028Z,80.10
2022-11-27T17:51:24.518Z,79.70
2022-11-27T17:53:53.227Z,76.40
2022-11-27T17:56:21.795Z,72.40
2022-11-27T17:58:50.944Z,89.10
2022-11-27T18:01:23.319Z,97.70
2022-11-27T18:03:54.246Z,105.10
2022-11-27T18:06:23.210Z,85.60
2022-11-27T18:08:55.148Z,81.90
2022-11-27T18:11:25.889Z,77.70
2022-11-27T18:13:56.871Z,76.40
2022-11-27T18:16:29.067Z,77.90
2022-11-27T18:18:58.733Z,74.50
2022-11-27T18:21:28.134Z,87.70
2022-11-27T18:27:07.062Z,81.20
2022-11-27T18:29:39.300Z,64.50
2022-11-27T18:32:08.743Z,83.70
2022-11-27T18:34:37.666Z,73.00
2022-11-27T18:37:06.634Z,77.40
2022-11-27T18:39:36.840Z,70.30
2022-11-27T18:42:06.960Z,79.20
2022-11-27T18:44:44.476Z,77.20
2022-11-27T18:47:15.501Z,75.10
2022-11-27T18:49:55.515Z,78.00
2022-11-27T18:52:25.047Z,84.20
2022-11-27T18:54:53.858Z,83.50
2022-11-27T18:57:22.216Z,82.40
2022-11-27T18:59:50.765Z,84.30
2022-11-27T19:02:19.846Z,70.20
2022-11-27T19:04:49.695Z,90.30
2022-11-27T19:07:19.105Z,93.30
2022-11-27T19:09:47.844Z,82.70
2022-11-27T19:12:16.614Z,78.80
2022-11-27T19:14:45.401Z,100.30
2022-11-27T19:17:14.035Z,100.50
2022-11-27T19:19:57.716Z,107.80
2022-11-27T19:22:27.747Z,96.10
2022-11-27T19:24:58.057Z,101.20
2022-11-27T19:27:27.008Z,95.20
2022-11-27T19:29:55.438Z,100.00
2022-11-27T19:32:24.345Z,99.40
2022-11-27T19:34:53.215Z,116.80
2022-11-27T19:37:34.116Z,146.90
2022-11-27T19:40:07.938Z,125.00
2022-11-27T19:42:37.039Z,135.50
2022-11-27T19:45:07.243Z,118.20
2022-11-27T19:47:36.030Z,114.60
2022-11-27T19:50:07.021Z,113.20
2022-11-27T19:52:36.245Z,90.60
2022-11-27T19:55:07.143Z,88.60
2022-11-27T19:57:37.051Z,90.90
2022-11-27T20:00:08.146Z,96.20
2022-11-27T20:02:42.292Z,93.90
2022-11-27T20:05:11.474Z,86.50
2022-11-27T20:07:40.265Z,83.90
2022-11-27T20:10:10.543Z,92.20
2022-11-27T20:12:39.472Z,95.10
2022-11-27T20:15:13.851Z,84.00
2022-11-27T20:17:43.152Z,84.20
2022-11-27T20:20:13.348Z,90.90
2022-11-27T20:22:42.747Z,89.40
2022-11-27T20:25:19.354Z,95.50
2022-11-27T20:27:50.155Z,110.80
2022-11-27T20:30:19.050Z,91.00
2022-11-27T20:32:47.431Z,85.90
2022-11-27T20:35:16.889Z,92.20
2022-11-27T20:37:45.727Z,96.80
2022-11-27T20:40:14.997Z,91.50
2022-11-27T20:42:43.513Z,97.30
2022-11-27T20:45:16.209Z,89.90
2022-11-27T20:47:47.940Z,105.60
2022-11-27T20:50:16.349Z,109.30
2022-11-27T20:52:45.054Z,119.70
2022-11-27T20:55:14.713Z,110.30
2022-11-27T20:57:43.057Z,120.00
2022-11-27T21:00:13.510Z,104.60
2022-11-27T21:02:42.759Z,98.30
2022-11-27T21:05:11.568Z,100.10
2022-11-27T21:07:41.949Z,94.20
2022-11-27T21:10:13.216Z,112.40
2022-11-27T21:12:42.149Z,107.90
2022-11-27T21:15:13.363Z,96.80
2022-11-27T21:17:41.974Z,95.70
2022-11-27T21:20:12.490Z,100.70
2022-11-27T21:22:43.397Z,96.30
2022-11-27T21:25:11.891Z,99.70
2022-11-27T21:27:40.463Z,101.80
2022-11-27T21:30:10.086Z,92.30
2022-11-27T21:32:38.526Z,95.40
2022-11-27T21:35:08.486Z,96.10
2022-11-27T21:37:37.168Z,88.50
2022-11-27T21:40:09.455Z,93.70
2022-11-27T21:42:43.022Z,92.90
2022-11-27T21:45:12.907Z,99.90
2022-11-27T21:47:41.809Z,93.20
2022-11-27T21:50:12.637Z,98.30
2022-11-27T21:52:40.875Z,97.50
2022-11-27T21:55:12.177Z,93.80
2022-11-27T21:57:40.743Z,102.00
2022-11-27T22:00:10.817Z,101.80
2022-11-27T22:02:40.455Z,96.60
2022-11-27T22:05:10.188Z,99.80
2022-11-27T22:07:38.809Z,94.70
2022-11-27T22:10:10.324Z,91.90
2022-11-27T22:12:40.177Z,100.50
2022-11-27T22:15:10.032Z,92.50
2022-11-27T22:17:38.507Z,86.40
2022-11-27T22:20:10.354Z,93.40
2022-11-27T22:22:39.092Z,103.40
2022-11-27T22:25:10.244Z,91.40
2022-11-27T22:27:38.701Z,92.50
2022-11-27T22:30:11.079Z,90.70
2022-11-27T22:32:39.661Z,96.20
2022-11-27T22:35:09.724Z,101.20
2022-11-27T22:37:38.514Z,88.20
2022-11-27T22:40:09.482Z,96.30
2022-11-27T22:42:38.466Z,94.90
2022-11-27T22:45:10.081Z,91.90
2022-11-27T22:47:38.439Z,98.00
2022-11-27T22:50:08.732Z,86.60
2022-11-27T22:52:37.520Z,91.50
2022-11-27T22:55:14.606Z,91.10
2022-11-27T22:57:43.374Z,103.00
2022-11-27T23:00:13.955Z,98.10
2022-11-27T23:02:44.362Z,105.80
2022-11-27T23:05:13.255Z,94.60
2022-11-27T23:07:41.811Z,100.60
2022-11-27T23:10:11.853Z,96.90
2022-11-27T23:12:40.646Z,97.80
2022-11-27T23:15:12.188Z,102.20
2022-11-27T23:17:40.729Z,100.40
2022-11-27T23:20:15.008Z,103.70
2022-11-27T23:22:43.854Z,100.30
2022-11-27T23:25:12.603Z,98.40
2022-11-27T23:27:41.711Z,97.70
2022-11-27T23:30:12.172Z,99.60
2022-11-27T23:32:40.776Z,106.00
2022-11-27T23:35:10.576Z,104.60
2022-11-27T23:37:38.928Z,97.60
2022-11-27T23:40:09.222Z,93.90
2022-11-27T23:42:37.838Z,94.10
2022-11-27T23:45:08.350Z,93.30
2022-11-27T23:47:36.607Z,98.60
2022-11-27T23:50:07.213Z,99.20
2022-11-27T23:52:38.146Z,89.90
2022-11-27T23:55:07.766Z,91.20
2022-11-27T23:57:36.821Z,90.50
